Terminal Aerodrome Forecast
Issued by NWS Sioux Falls, SD

Home | Current Version | Previous Version | Text Only | Print | Product List | Glossary On
Versions: 1 2 3 4 5 6 7 8 9 10 11 12 13 14
000
FTUS43 KFSD 270520
TAFHON
TAF
KHON 270520Z 2706/2806 13007KT P6SM SKC
     FM271100 14008KT 6SM BR SCT012
     FM271500 15012KT P6SM SCT150
     FM271800 15017G24KT P6SM SCT150
     FM280300 14016G23KT P6SM VCTS SCT050CB SCT120=

USA.gov is the U.S. government's official web portal to all federal, state and local government web resources and services.